Sunday, December 16, 2018, 4:07 PM GMT
Back to Local

CYBG, Bagotville, Que.

Location: , , Canada Lat: 48.333
Local Time: 4:07 PM GMT (16:07 GMT) Lon: -71
Time Zone: GMT Elev: 521 ft

Show me the last for .
Show Coded

Time T Td Feel RH Dir Speed Gust Alt SLP Vis Weather Sky Remarks
2018-12-16 15:00 30 25 - 80 - Calm - 30.23 30.26 25 BKN020 None
2018-12-16 14:00 28 25 23 86 270° 5 - 30.23 30.26 25 BKN020 None
2018-12-16 13:00 28 27 - 92 360° 2 - 30.23 30.26 25 BKN020 None
2018-12-16 12:00 28 25 25 86 60° 3 - 30.21 30.24 25 OVC020 None
2018-12-16 11:00 28 25 - 86 90° 2 - 30.22 30.24 25 OVC020 None
2018-12-16 10:00 28 25 - 86 - Calm - 30.22 30.24 25 OVC020 None
2018-12-16 09:00 28 25 - 86 - Calm - 30.24 30.27 25 OVC025 None
2018-12-16 08:00 28 25 25 86 250° 3 - 30.25 30.27 25 OVC025 None
2018-12-16 07:00 28 25 - 86 250° 2 - 30.27 30.30 25 OVC027 None
2018-12-16 06:00 30 27 24 86 260° 6 - 30.29 30.32 25 OVC025 None
2018-12-16 05:00 30 27 24 86 240° 6 - 30.30 30.33 25 OVC025 None
2018-12-16 04:00 32 27 26 80 260° 7 - 30.30 30.32 25 OVC027 None
2018-12-16 03:00 32 28 26 86 270° 7 - 30.27 30.29 25 OVC030 None
2018-12-16 02:00 32 28 24 86 270° 9 - 30.25 30.28 25 OVC028 None
2018-12-16 01:00 32 28 27 86 250° 5 - 30.24 30.27 25 OVC030 None
2018-12-16 00:00 34 28 27 80 260° 8 - 30.24 30.27 25 OVC040 None
2018-12-15 23:00 34 30 26 86 260° 10 - 30.22 30.24 25 OVC040 None
2018-12-15 22:00 34 30 27 86 270° 8 - 30.18 30.20 25 OVC045 None
2018-12-15 21:00 34 30 28 86 270° 7 - 30.15 30.18 25 OVC050 None
2018-12-15 20:00 36 30 28 80 270° 12 - 30.13 30.16 25 FEW024 BKN050 None
2018-12-15 19:00 36 30 28 80 260° 12 - 30.11 30.14 25 FEW024 OVC050 None
2018-12-15 18:00 36 30 27 80 260° 14 - 30.10 30.12 25 SCT024 OVC050 None
2018-12-15 17:00 36 30 25 80 270° 13 18 30.08 30.11 25 SCT022 BKN030 OVC050 None

Support USWX by starting your Amazon purchase here.